Aérodrome :
LOGIN :

S'inscrire | Disclaimer

   EN    FR    IT 

 










Légende :    VFR   VFR Marginal   IFR   IFR Intensif   IFR Très Intensif
Visi : 
Plafond : 
>= 8 km
>= 3000ft
5 à 8 km
1000 à 3000 ft
1500m à 5 km
500 à 1000 ft
800 à 1500m
200 à 500 ft
< 800m
< 200 ft
Symboles :   Orages  Brouillard  Fortes neiges  Fortes précipitations  Vent > 20 kt
SIGMETs :   Divers  Orages  Givrage  Turbulence  Onde Orograph.  Cendres Volcan.






- Altitude de l'aérodrome : 20 ft


EBFN - Koksijde

DERNIER METAR :
  • 280824Z AUTO 10003KT 1000 FG NCD 03/03 Q1018 AMB

METARs EXPIRÉS :
  • 280755Z AUTO 08004KT 0550 FG NCD 03/03 Q1018 RED
  • 280725Z AUTO 09005KT 0550 FG FEW004/// 03/03 Q1018 RED
  • 280655Z AUTO 08004KT 0150 -RA OVC003/// 02/02 Q1018 RED
  • 280625Z AUTO VRB03KT 0100 -RA OVC002/// 03/03 Q1017 RED
  • 280555Z AUTO VRB01KT 0100 -RA OVC002/// 03/03 Q1017 RED
  • 280525Z AUTO VRB02KT 0150 -RA NCD 04/04 Q1017 RED

TAF TAF EBFN
Valide du 28 à 07h jusqu'au 28 à 16h UTC


280541Z 2807/2816 10007KT 5000 BR FEW100
TEMPO 2807/2809 3000 BR FEW002
BECMG 2808/2809 10012KT 9999 NSW BY EBWM



MET'MAP, la Météo Aéronautique d'un coup d'oeil ! - Copyright ORBIFLY Décembre 2007 - Disclaimer

ORBIFLY MET'MAP TEAM :

Programmation & Développement : Alexandra Zaïnal
Sur une idée originale de : Baudouin d'Aumeries
Assistance à la programmation : Marc-Olivier Méhu
Soutien technique & logistique : Manuel Goepfert

Contact : metmap@orbifly.com




SOURCES & CREDITS :

   NOAA